sensor_id;sensor_type;location;lat;lon;timestamp;P1;durP1;ratioP1;P2;durP2;ratioP2
14015;SDS011;7083;48.854;9.158;2024-03-02T00:00:59;15.13;;;13.13;;
14015;SDS011;7083;48.854;9.158;2024-03-02T00:03:29;15.93;;;13.67;;
14015;SDS011;7083;48.854;9.158;2024-03-02T00:06:00;15.37;;;13.60;;
14015;SDS011;7083;48.854;9.158;2024-03-02T00:08:29;15.47;;;13.87;;
14015;SDS011;7083;48.854;9.158;2024-03-02T00:10:57;16.03;;;14.23;;
14015;SDS011;7083;48.854;9.158;2024-03-02T00:14:49;15.87;;;13.77;;
14015;SDS011;7083;48.854;9.158;2024-03-02T00:20:06;15.13;;;13.10;;
14015;SDS011;7083;48.854;9.158;2024-03-02T00:22:48;14.83;;;13.43;;
14015;SDS011;7083;48.854;9.158;2024-03-02T00:31:52;15.30;;;12.73;;
14015;SDS011;7083;48.854;9.158;2024-03-02T00:34:21;14.90;;;13.40;;
14015;SDS011;7083;48.854;9.158;2024-03-02T00:36:48;15.47;;;12.60;;
14015;SDS011;7083;48.854;9.158;2024-03-02T00:39:16;15.57;;;14.17;;
14015;SDS011;7083;48.854;9.158;2024-03-02T00:41:43;15.00;;;13.70;;
14015;SDS011;7083;48.854;9.158;2024-03-02T00:44:10;15.07;;;13.57;;
14015;SDS011;7083;48.854;9.158;2024-03-02T00:46:39;15.30;;;13.93;;
14015;SDS011;7083;48.854;9.158;2024-03-02T00:49:11;14.27;;;12.97;;
14015;SDS011;7083;48.854;9.158;2024-03-02T00:51:44;13.30;;;12.10;;
14015;SDS011;7083;48.854;9.158;2024-03-02T00:54:13;15.67;;;14.07;;
14015;SDS011;7083;48.854;9.158;2024-03-02T00:56:41;13.37;;;12.07;;
14015;SDS011;7083;48.854;9.158;2024-03-02T00:59:09;13.60;;;12.37;;
14015;SDS011;7083;48.854;9.158;2024-03-02T01:01:36;14.87;;;13.47;;
14015;SDS011;7083;48.854;9.158;2024-03-02T01:04:03;15.57;;;13.97;;
14015;SDS011;7083;48.854;9.158;2024-03-02T01:06:31;14.37;;;13.07;;
14015;SDS011;7083;48.854;9.158;2024-03-02T01:08:58;15.00;;;13.60;;
14015;SDS011;7083;48.854;9.158;2024-03-02T01:11:25;14.60;;;13.20;;
14015;SDS011;7083;48.854;9.158;2024-03-02T01:13:52;14.37;;;12.97;;
14015;SDS011;7083;48.854;9.158;2024-03-02T01:16:19;14.47;;;13.17;;
14015;SDS011;7083;48.854;9.158;2024-03-02T01:18:46;15.40;;;13.90;;
14015;SDS011;7083;48.854;9.158;2024-03-02T01:21:12;13.43;;;11.43;;
14015;SDS011;7083;48.854;9.158;2024-03-02T01:23:40;15.80;;;13.17;;
14015;SDS011;7083;48.854;9.158;2024-03-02T01:26:07;16.37;;;14.77;;
14015;SDS011;7083;48.854;9.158;2024-03-02T01:28:34;14.60;;;13.20;;
14015;SDS011;7083;48.854;9.158;2024-03-02T01:31:00;16.07;;;14.47;;
14015;SDS011;7083;48.854;9.158;2024-03-02T01:33:27;15.30;;;13.83;;
14015;SDS011;7083;48.854;9.158;2024-03-02T01:35:54;14.00;;;12.63;;
14015;SDS011;7083;48.854;9.158;2024-03-02T01:38:21;14.60;;;13.07;;
14015;SDS011;7083;48.854;9.158;2024-03-02T01:40:49;14.17;;;12.60;;
14015;SDS011;7083;48.854;9.158;2024-03-02T01:43:16;12.70;;;11.03;;
14015;SDS011;7083;48.854;9.158;2024-03-02T01:45:43;13.40;;;11.17;;
14015;SDS011;7083;48.854;9.158;2024-03-02T01:48:10;13.60;;;12.20;;
14015;SDS011;7083;48.854;9.158;2024-03-02T01:50:37;13.47;;;12.13;;
14015;SDS011;7083;48.854;9.158;2024-03-02T01:53:04;13.37;;;12.07;;
14015;SDS011;7083;48.854;9.158;2024-03-02T01:55:30;12.87;;;11.67;;
14015;SDS011;7083;48.854;9.158;2024-03-02T01:58:01;14.60;;;13.10;;
14015;SDS011;7083;48.854;9.158;2024-03-02T02:03:19;14.40;;;12.97;;
14015;SDS011;7083;48.854;9.158;2024-03-02T02:05:46;13.70;;;12.20;;
14015;SDS011;7083;48.854;9.158;2024-03-02T02:25:03;16.17;;;14.40;;
14015;SDS011;7083;48.854;9.158;2024-03-02T02:27:52;14.87;;;13.37;;
14015;SDS011;7083;48.854;9.158;2024-03-02T02:30:31;17.33;;;15.50;;
14015;SDS011;7083;48.854;9.158;2024-03-02T02:32:58;20.40;;;18.23;;
14015;SDS011;7083;48.854;9.158;2024-03-02T02:35:25;17.27;;;15.13;;
14015;SDS011;7083;48.854;9.158;2024-03-02T02:37:54;16.57;;;13.50;;
14015;SDS011;7083;48.854;9.158;2024-03-02T02:43:44;16.27;;;13.00;;
14015;SDS011;7083;48.854;9.158;2024-03-02T02:46:11;14.57;;;13.07;;
14015;SDS011;7083;48.854;9.158;2024-03-02T02:48:38;14.20;;;12.70;;
14015;SDS011;7083;48.854;9.158;2024-03-02T02:51:04;15.53;;;14.00;;
14015;SDS011;7083;48.854;9.158;2024-03-02T02:53:32;15.47;;;13.87;;
14015;SDS011;7083;48.854;9.158;2024-03-02T02:56:00;14.73;;;13.00;;
14015;SDS011;7083;48.854;9.158;2024-03-02T02:58:27;16.00;;;14.30;;
14015;SDS011;7083;48.854;9.158;2024-03-02T03:00:53;15.10;;;13.50;;
14015;SDS011;7083;48.854;9.158;2024-03-02T03:03:21;18.20;;;15.27;;
14015;SDS011;7083;48.854;9.158;2024-03-02T03:05:48;15.97;;;14.27;;
14015;SDS011;7083;48.854;9.158;2024-03-02T03:08:15;18.70;;;15.17;;
14015;SDS011;7083;48.854;9.158;2024-03-02T03:10:43;15.47;;;13.83;;
14015;SDS011;7083;48.854;9.158;2024-03-02T03:13:09;14.97;;;13.47;;
14015;SDS011;7083;48.854;9.158;2024-03-02T03:15:36;18.37;;;14.60;;
14015;SDS011;7083;48.854;9.158;2024-03-02T03:18:03;19.40;;;14.17;;
14015;SDS011;7083;48.854;9.158;2024-03-02T03:20:31;18.77;;;15.20;;
14015;SDS011;7083;48.854;9.158;2024-03-02T03:22:58;15.77;;;14.17;;
14015;SDS011;7083;48.854;9.158;2024-03-02T03:25:25;14.67;;;13.17;;
14015;SDS011;7083;48.854;9.158;2024-03-02T03:27:53;15.70;;;14.10;;
14015;SDS011;7083;48.854;9.158;2024-03-02T03:30:20;16.60;;;15.10;;
14015;SDS011;7083;48.854;9.158;2024-03-02T03:32:46;15.03;;;13.23;;
14015;SDS011;7083;48.854;9.158;2024-03-02T03:35:14;15.43;;;13.50;;
14015;SDS011;7083;48.854;9.158;2024-03-02T03:37:41;15.37;;;13.83;;
14015;SDS011;7083;48.854;9.158;2024-03-02T03:40:07;15.87;;;14.07;;
14015;SDS011;7083;48.854;9.158;2024-03-02T03:42:36;14.47;;;12.87;;
14015;SDS011;7083;48.854;9.158;2024-03-02T03:45:04;16.40;;;13.77;;
14015;SDS011;7083;48.854;9.158;2024-03-02T03:47:31;15.77;;;13.60;;
14015;SDS011;7083;48.854;9.158;2024-03-02T03:49:58;16.33;;;14.33;;
14015;SDS011;7083;48.854;9.158;2024-03-02T03:52:25;14.80;;;13.20;;
14015;SDS011;7083;48.854;9.158;2024-03-02T03:54:51;17.47;;;14.53;;
14015;SDS011;7083;48.854;9.158;2024-03-02T03:57:18;18.10;;;13.77;;
14015;SDS011;7083;48.854;9.158;2024-03-02T03:59:45;18.47;;;14.10;;
14015;SDS011;7083;48.854;9.158;2024-03-02T04:02:14;15.67;;;13.87;;
14015;SDS011;7083;48.854;9.158;2024-03-02T04:04:40;17.63;;;15.03;;
14015;SDS011;7083;48.854;9.158;2024-03-02T04:07:08;15.83;;;14.23;;
14015;SDS011;7083;48.854;9.158;2024-03-02T04:09:35;19.00;;;15.43;;
14015;SDS011;7083;48.854;9.158;2024-03-02T04:12:02;17.50;;;15.57;;
14015;SDS011;7083;48.854;9.158;2024-03-02T04:14:29;17.20;;;15.07;;
14015;SDS011;7083;48.854;9.158;2024-03-02T04:16:55;16.27;;;14.47;;
14015;SDS011;7083;48.854;9.158;2024-03-02T04:19:23;20.43;;;15.93;;
14015;SDS011;7083;48.854;9.158;2024-03-02T04:21:50;17.27;;;14.63;;
14015;SDS011;7083;48.854;9.158;2024-03-02T04:24:17;17.57;;;14.87;;
14015;SDS011;7083;48.854;9.158;2024-03-02T04:26:43;16.90;;;13.97;;
14015;SDS011;7083;48.854;9.158;2024-03-02T04:29:10;19.57;;;15.90;;
14015;SDS011;7083;48.854;9.158;2024-03-02T04:31:37;20.00;;;15.20;;
14015;SDS011;7083;48.854;9.158;2024-03-02T04:34:04;19.67;;;17.37;;
14015;SDS011;7083;48.854;9.158;2024-03-02T04:36:32;20.67;;;18.53;;
14015;SDS011;7083;48.854;9.158;2024-03-02T04:38:58;20.93;;;18.70;;
14015;SDS011;7083;48.854;9.158;2024-03-02T04:41:25;19.27;;;17.23;;
14015;SDS011;7083;48.854;9.158;2024-03-02T04:43:52;20.37;;;18.27;;
14015;SDS011;7083;48.854;9.158;2024-03-02T04:46:19;20.43;;;18.33;;
14015;SDS011;7083;48.854;9.158;2024-03-02T04:48:46;17.60;;;15.17;;
14015;SDS011;7083;48.854;9.158;2024-03-02T04:51:13;22.03;;;17.23;;
14015;SDS011;7083;48.854;9.158;2024-03-02T04:53:41;19.43;;;16.77;;
14015;SDS011;7083;48.854;9.158;2024-03-02T04:56:08;17.53;;;15.37;;
14015;SDS011;7083;48.854;9.158;2024-03-02T04:59:05;18.10;;;14.43;;
14015;SDS011;7083;48.854;9.158;2024-03-02T05:01:32;17.23;;;13.60;;
14015;SDS011;7083;48.854;9.158;2024-03-02T05:03:59;16.43;;;14.70;;
14015;SDS011;7083;48.854;9.158;2024-03-02T05:06:26;20.87;;;17.90;;
14015;SDS011;7083;48.854;9.158;2024-03-02T05:08:54;17.07;;;14.23;;
14015;SDS011;7083;48.854;9.158;2024-03-02T05:11:21;17.57;;;15.63;;
14015;SDS011;7083;48.854;9.158;2024-03-02T05:14:06;19.47;;;15.53;;
14015;SDS011;7083;48.854;9.158;2024-03-02T05:16:33;17.63;;;14.43;;
14015;SDS011;7083;48.854;9.158;2024-03-02T05:19:00;17.90;;;16.13;;
14015;SDS011;7083;48.854;9.158;2024-03-02T05:21:27;19.90;;;17.83;;
14015;SDS011;7083;48.854;9.158;2024-03-02T05:23:55;19.77;;;17.67;;
14015;SDS011;7083;48.854;9.158;2024-03-02T05:26:21;17.77;;;15.50;;
14015;SDS011;7083;48.854;9.158;2024-03-02T05:28:50;20.13;;;15.80;;
14015;SDS011;7083;48.854;9.158;2024-03-02T05:31:18;16.97;;;15.20;;
14015;SDS011;7083;48.854;9.158;2024-03-02T05:33:45;21.43;;;16.77;;
14015;SDS011;7083;48.854;9.158;2024-03-02T05:36:12;18.63;;;15.80;;
14015;SDS011;7083;48.854;9.158;2024-03-02T05:38:38;19.40;;;16.10;;
14015;SDS011;7083;48.854;9.158;2024-03-02T05:41:07;19.37;;;16.17;;
14015;SDS011;7083;48.854;9.158;2024-03-02T05:43:34;21.07;;;17.00;;
14015;SDS011;7083;48.854;9.158;2024-03-02T05:46:01;23.07;;;17.20;;
14015;SDS011;7083;48.854;9.158;2024-03-02T05:48:28;19.33;;;16.10;;
14015;SDS011;7083;48.854;9.158;2024-03-02T05:50:55;18.37;;;15.97;;
14015;SDS011;7083;48.854;9.158;2024-03-02T05:53:26;19.23;;;17.13;;
14015;SDS011;7083;48.854;9.158;2024-03-02T05:55:55;19.17;;;17.03;;
14015;SDS011;7083;48.854;9.158;2024-03-02T05:58:25;19.17;;;14.37;;
14015;SDS011;7083;48.854;9.158;2024-03-02T06:01:02;22.53;;;15.93;;
14015;SDS011;7083;48.854;9.158;2024-03-02T06:03:31;18.07;;;15.53;;
14015;SDS011;7083;48.854;9.158;2024-03-02T06:05:58;22.57;;;16.40;;
14015;SDS011;7083;48.854;9.158;2024-03-02T06:08:25;16.70;;;14.90;;
14015;SDS011;7083;48.854;9.158;2024-03-02T06:10:54;20.37;;;15.23;;
14015;SDS011;7083;48.854;9.158;2024-03-02T06:13:21;17.77;;;14.73;;
14015;SDS011;7083;48.854;9.158;2024-03-02T06:15:49;18.93;;;15.00;;
14015;SDS011;7083;48.854;9.158;2024-03-02T06:18:16;19.20;;;16.13;;
14015;SDS011;7083;48.854;9.158;2024-03-02T06:20:43;17.83;;;15.73;;
14015;SDS011;7083;48.854;9.158;2024-03-02T06:23:10;21.27;;;16.40;;
14015;SDS011;7083;48.854;9.158;2024-03-02T06:25:39;19.50;;;15.33;;
14015;SDS011;7083;48.854;9.158;2024-03-02T06:28:05;20.70;;;16.23;;
14015;SDS011;7083;48.854;9.158;2024-03-02T06:30:32;18.83;;;15.63;;
14015;SDS011;7083;48.854;9.158;2024-03-02T06:33:00;22.67;;;16.17;;
14015;SDS011;7083;48.854;9.158;2024-03-02T06:35:28;21.80;;;16.63;;
14015;SDS011;7083;48.854;9.158;2024-03-02T06:38:01;19.10;;;16.57;;
14015;SDS011;7083;48.854;9.158;2024-03-02T06:40:33;21.77;;;19.33;;
14015;SDS011;7083;48.854;9.158;2024-03-02T06:43:03;23.90;;;19.70;;
14015;SDS011;7083;48.854;9.158;2024-03-02T06:45:48;23.57;;;20.73;;
14015;SDS011;7083;48.854;9.158;2024-03-02T06:48:16;23.97;;;19.93;;
14015;SDS011;7083;48.854;9.158;2024-03-02T06:50:48;25.57;;;21.03;;
14015;SDS011;7083;48.854;9.158;2024-03-02T06:53:23;23.00;;;20.33;;
14015;SDS011;7083;48.854;9.158;2024-03-02T06:55:55;24.50;;;20.20;;
14015;SDS011;7083;48.854;9.158;2024-03-02T06:58:41;24.60;;;20.17;;
14015;SDS011;7083;48.854;9.158;2024-03-02T07:01:12;27.13;;;21.83;;
14015;SDS011;7083;48.854;9.158;2024-03-02T07:03:41;24.00;;;21.30;;
14015;SDS011;7083;48.854;9.158;2024-03-02T07:08:54;24.23;;;21.63;;
14015;SDS011;7083;48.854;9.158;2024-03-02T07:11:23;23.83;;;20.97;;
14015;SDS011;7083;48.854;9.158;2024-03-02T07:13:54;26.92;;;24.30;;
14015;SDS011;7083;48.854;9.158;2024-03-02T07:16:30;23.07;;;20.60;;
14015;SDS011;7083;48.854;9.158;2024-03-02T07:19:06;22.70;;;20.17;;
14015;SDS011;7083;48.854;9.158;2024-03-02T07:24:19;20.10;;;18.00;;
14015;SDS011;7083;48.854;9.158;2024-03-02T07:26:46;20.00;;;17.50;;
14015;SDS011;7083;48.854;9.158;2024-03-02T07:29:17;17.13;;;14.97;;
14015;SDS011;7083;48.854;9.158;2024-03-02T07:31:44;18.57;;;16.63;;
14015;SDS011;7083;48.854;9.158;2024-03-02T07:34:12;20.23;;;16.13;;
14015;SDS011;7083;48.854;9.158;2024-03-02T07:36:43;19.87;;;17.87;;
14015;SDS011;7083;48.854;9.158;2024-03-02T07:39:10;20.10;;;17.93;;
14015;SDS011;7083;48.854;9.158;2024-03-02T07:41:37;19.53;;;17.67;;
14015;SDS011;7083;48.854;9.158;2024-03-02T07:44:04;18.97;;;15.50;;
14015;SDS011;7083;48.854;9.158;2024-03-02T07:46:40;20.00;;;17.03;;
14015;SDS011;7083;48.854;9.158;2024-03-02T07:49:07;20.20;;;16.33;;
14015;SDS011;7083;48.854;9.158;2024-03-02T07:51:35;19.23;;;17.43;;
14015;SDS011;7083;48.854;9.158;2024-03-02T07:54:02;19.97;;;17.93;;
14015;SDS011;7083;48.854;9.158;2024-03-02T07:56:29;20.60;;;16.77;;
14015;SDS011;7083;48.854;9.158;2024-03-02T07:58:56;19.97;;;17.87;;
14015;SDS011;7083;48.854;9.158;2024-03-02T08:01:26;17.80;;;16.07;;
14015;SDS011;7083;48.854;9.158;2024-03-02T08:03:53;17.50;;;15.73;;
14015;SDS011;7083;48.854;9.158;2024-03-02T08:06:22;17.83;;;16.00;;
14015;SDS011;7083;48.854;9.158;2024-03-02T08:08:53;15.83;;;14.33;;
14015;SDS011;7083;48.854;9.158;2024-03-02T08:11:20;15.67;;;14.17;;
14015;SDS011;7083;48.854;9.158;2024-03-02T08:13:47;17.37;;;14.63;;
14015;SDS011;7083;48.854;9.158;2024-03-02T08:16:14;17.47;;;15.67;;
14015;SDS011;7083;48.854;9.158;2024-03-02T08:18:45;16.03;;;14.53;;
14015;SDS011;7083;48.854;9.158;2024-03-02T08:21:12;16.90;;;14.53;;
14015;SDS011;7083;48.854;9.158;2024-03-02T08:23:39;15.57;;;13.97;;
14015;SDS011;7083;48.854;9.158;2024-03-02T08:26:08;15.20;;;13.80;;
14015;SDS011;7083;48.854;9.158;2024-03-02T08:28:36;16.50;;;14.87;;
14015;SDS011;7083;48.854;9.158;2024-03-02T08:31:05;16.10;;;14.50;;
14015;SDS011;7083;48.854;9.158;2024-03-02T08:33:32;16.77;;;15.17;;
14015;SDS011;7083;48.854;9.158;2024-03-02T08:35:58;16.07;;;14.57;;
14015;SDS011;7083;48.854;9.158;2024-03-02T08:38:25;16.07;;;14.47;;
14015;SDS011;7083;48.854;9.158;2024-03-02T08:40:52;16.77;;;15.20;;
14015;SDS011;7083;48.854;9.158;2024-03-02T08:43:21;16.67;;;14.97;;
14015;SDS011;7083;48.854;9.158;2024-03-02T08:45:48;16.13;;;14.47;;
14015;SDS011;7083;48.854;9.158;2024-03-02T08:48:15;17.57;;;15.17;;
14015;SDS011;7083;48.854;9.158;2024-03-02T08:50:42;15.20;;;13.80;;
14015;SDS011;7083;48.854;9.158;2024-03-02T08:53:09;15.73;;;14.20;;
14015;SDS011;7083;48.854;9.158;2024-03-02T08:55:36;14.07;;;12.57;;
14015;SDS011;7083;48.854;9.158;2024-03-02T08:58:02;15.87;;;14.27;;
14015;SDS011;7083;48.854;9.158;2024-03-02T09:00:31;14.57;;;13.27;;
14015;SDS011;7083;48.854;9.158;2024-03-02T09:02:57;14.13;;;12.83;;
14015;SDS011;7083;48.854;9.158;2024-03-02T09:05:24;13.47;;;12.17;;
14015;SDS011;7083;48.854;9.158;2024-03-02T09:07:51;11.80;;;10.60;;
14015;SDS011;7083;48.854;9.158;2024-03-02T09:10:17;11.73;;;10.63;;
14015;SDS011;7083;48.854;9.158;2024-03-02T09:12:44;11.33;;;10.30;;
14015;SDS011;7083;48.854;9.158;2024-03-02T09:15:11;10.53;;;9.63;;
14015;SDS011;7083;48.854;9.158;2024-03-02T09:17:39;11.37;;;10.37;;
14015;SDS011;7083;48.854;9.158;2024-03-02T09:20:06;10.63;;;9.73;;
14015;SDS011;7083;48.854;9.158;2024-03-02T09:22:33;9.20;;;8.43;;
14015;SDS011;7083;48.854;9.158;2024-03-02T09:25:00;10.30;;;9.40;;
14015;SDS011;7083;48.854;9.158;2024-03-02T09:27:26;10.37;;;9.47;;
14015;SDS011;7083;48.854;9.158;2024-03-02T09:29:53;10.40;;;9.47;;
14015;SDS011;7083;48.854;9.158;2024-03-02T09:32:20;9.70;;;8.90;;
14015;SDS011;7083;48.854;9.158;2024-03-02T09:34:48;9.30;;;8.53;;
14015;SDS011;7083;48.854;9.158;2024-03-02T09:37:15;10.67;;;9.80;;
14015;SDS011;7083;48.854;9.158;2024-03-02T09:39:43;9.23;;;8.43;;
14015;SDS011;7083;48.854;9.158;2024-03-02T09:42:10;9.70;;;8.87;;
14015;SDS011;7083;48.854;9.158;2024-03-02T09:44:38;9.77;;;8.87;;
14015;SDS011;7083;48.854;9.158;2024-03-02T09:47:06;9.57;;;8.60;;
14015;SDS011;7083;48.854;9.158;2024-03-02T09:49:34;9.23;;;8.33;;
14015;SDS011;7083;48.854;9.158;2024-03-02T09:52:02;7.93;;;7.30;;
14015;SDS011;7083;48.854;9.158;2024-03-02T09:54:30;8.53;;;7.90;;
14015;SDS011;7083;48.854;9.158;2024-03-02T09:56:57;8.30;;;7.50;;
14015;SDS011;7083;48.854;9.158;2024-03-02T09:59:26;9.33;;;8.53;;
14015;SDS011;7083;48.854;9.158;2024-03-02T10:01:57;8.30;;;7.50;;
14015;SDS011;7083;48.854;9.158;2024-03-02T10:04:25;6.90;;;6.50;;
14015;SDS011;7083;48.854;9.158;2024-03-02T10:06:59;7.20;;;6.60;;
14015;SDS011;7083;48.854;9.158;2024-03-02T10:09:38;7.13;;;6.43;;
14015;SDS011;7083;48.854;9.158;2024-03-02T10:12:05;6.50;;;6.00;;
14015;SDS011;7083;48.854;9.158;2024-03-02T10:14:33;7.13;;;6.53;;
14015;SDS011;7083;48.854;9.158;2024-03-02T10:17:03;6.60;;;6.10;;
14015;SDS011;7083;48.854;9.158;2024-03-02T10:19:31;7.00;;;6.50;;
14015;SDS011;7083;48.854;9.158;2024-03-02T10:21:59;7.53;;;6.93;;
14015;SDS011;7083;48.854;9.158;2024-03-02T10:24:34;6.43;;;5.93;;
14015;SDS011;7083;48.854;9.158;2024-03-02T10:27:02;7.03;;;6.20;;
14015;SDS011;7083;48.854;9.158;2024-03-02T10:29:34;6.00;;;5.60;;
14015;SDS011;7083;48.854;9.158;2024-03-02T10:32:03;6.07;;;5.63;;
14015;SDS011;7083;48.854;9.158;2024-03-02T10:34:31;5.17;;;4.87;;
14015;SDS011;7083;48.854;9.158;2024-03-02T10:36:58;5.73;;;5.33;;
14015;SDS011;7083;48.854;9.158;2024-03-02T10:39:25;5.23;;;4.83;;
14015;SDS011;7083;48.854;9.158;2024-03-02T10:41:53;5.40;;;5.00;;
14015;SDS011;7083;48.854;9.158;2024-03-02T10:44:22;5.10;;;4.80;;
14015;SDS011;7083;48.854;9.158;2024-03-02T10:46:49;4.90;;;4.50;;
14015;SDS011;7083;48.854;9.158;2024-03-02T10:49:18;5.80;;;5.40;;
14015;SDS011;7083;48.854;9.158;2024-03-02T10:51:47;4.83;;;4.53;;
14015;SDS011;7083;48.854;9.158;2024-03-02T10:54:14;4.88;;;4.53;;
14015;SDS011;7083;48.854;9.158;2024-03-02T10:56:41;4.33;;;4.10;;
14015;SDS011;7083;48.854;9.158;2024-03-02T10:59:15;5.00;;;4.60;;
14015;SDS011;7083;48.854;9.158;2024-03-02T11:01:48;4.80;;;4.40;;
14015;SDS011;7083;48.854;9.158;2024-03-02T11:04:16;4.93;;;4.63;;
14015;SDS011;7083;48.854;9.158;2024-03-02T11:06:46;4.77;;;4.47;;
14015;SDS011;7083;48.854;9.158;2024-03-02T11:09:16;4.43;;;4.17;;
14015;SDS011;7083;48.854;9.158;2024-03-02T11:11:46;5.30;;;4.87;;
14015;SDS011;7083;48.854;9.158;2024-03-02T11:14:23;4.97;;;4.63;;
14015;SDS011;7083;48.854;9.158;2024-03-02T11:16:51;4.80;;;3.50;;
14015;SDS011;7083;48.854;9.158;2024-03-02T11:19:19;4.30;;;4.00;;
14015;SDS011;7083;48.854;9.158;2024-03-02T11:21:46;4.43;;;4.13;;
14015;SDS011;7083;48.854;9.158;2024-03-02T11:24:28;4.83;;;4.50;;
14015;SDS011;7083;48.854;9.158;2024-03-02T11:26:58;4.30;;;4.03;;
14015;SDS011;7083;48.854;9.158;2024-03-02T11:32:15;3.83;;;3.53;;
14015;SDS011;7083;48.854;9.158;2024-03-02T11:34:47;3.83;;;3.53;;
14015;SDS011;7083;48.854;9.158;2024-03-02T11:37:15;3.40;;;3.20;;
14015;SDS011;7083;48.854;9.158;2024-03-02T11:39:43;3.07;;;2.87;;
14015;SDS011;7083;48.854;9.158;2024-03-02T11:42:11;3.53;;;3.33;;
14015;SDS011;7083;48.854;9.158;2024-03-02T11:44:41;3.10;;;2.90;;
14015;SDS011;7083;48.854;9.158;2024-03-02T11:47:12;3.17;;;2.93;;
14015;SDS011;7083;48.854;9.158;2024-03-02T11:49:43;2.83;;;2.57;;
14015;SDS011;7083;48.854;9.158;2024-03-02T11:52:11;2.60;;;2.50;;
14015;SDS011;7083;48.854;9.158;2024-03-02T11:54:40;2.93;;;2.73;;
14015;SDS011;7083;48.854;9.158;2024-03-02T11:57:11;2.20;;;2.10;;
14015;SDS011;7083;48.854;9.158;2024-03-02T11:59:39;1.67;;;1.57;;
14015;SDS011;7083;48.854;9.158;2024-03-02T12:02:05;1.70;;;1.70;;
14015;SDS011;7083;48.854;9.158;2024-03-02T12:04:33;1.80;;;1.70;;
14015;SDS011;7083;48.854;9.158;2024-03-02T12:07:00;1.60;;;1.50;;
14015;SDS011;7083;48.854;9.158;2024-03-02T12:09:27;1.40;;;1.30;;
14015;SDS011;7083;48.854;9.158;2024-03-02T12:12:01;1.47;;;1.37;;
14015;SDS011;7083;48.854;9.158;2024-03-02T12:14:29;1.50;;;1.47;;
14015;SDS011;7083;48.854;9.158;2024-03-02T12:16:56;2.27;;;2.17;;
14015;SDS011;7083;48.854;9.158;2024-03-02T12:19:23;1.67;;;1.57;;
14015;SDS011;7083;48.854;9.158;2024-03-02T12:21:52;0.60;;;0.60;;
14015;SDS011;7083;48.854;9.158;2024-03-02T12:24:19;0.90;;;0.90;;
14015;SDS011;7083;48.854;9.158;2024-03-02T12:26:47;0.60;;;0.60;;
14015;SDS011;7083;48.854;9.158;2024-03-02T12:29:14;1.63;;;1.63;;
14015;SDS011;7083;48.854;9.158;2024-03-02T12:31:41;0.60;;;0.60;;
14015;SDS011;7083;48.854;9.158;2024-03-02T12:34:10;0.60;;;0.60;;
14015;SDS011;7083;48.854;9.158;2024-03-02T12:36:38;0.83;;;0.83;;
14015;SDS011;7083;48.854;9.158;2024-03-02T12:39:08;0.70;;;0.70;;
14015;SDS011;7083;48.854;9.158;2024-03-02T12:41:35;2.17;;;1.53;;
14015;SDS011;7083;48.854;9.158;2024-03-02T12:44:03;0.60;;;0.60;;
14015;SDS011;7083;48.854;9.158;2024-03-02T12:46:30;1.00;;;1.00;;
14015;SDS011;7083;48.854;9.158;2024-03-02T12:48:57;2.47;;;1.20;;
14015;SDS011;7083;48.854;9.158;2024-03-02T12:51:26;0.80;;;0.80;;
14015;SDS011;7083;48.854;9.158;2024-03-02T12:53:53;1.00;;;1.00;;
14015;SDS011;7083;48.854;9.158;2024-03-02T12:56:22;0.80;;;0.80;;
14015;SDS011;7083;48.854;9.158;2024-03-02T12:58:52;0.80;;;0.80;;
14015;SDS011;7083;48.854;9.158;2024-03-02T13:01:19;0.97;;;0.97;;
14015;SDS011;7083;48.854;9.158;2024-03-02T13:03:48;0.90;;;0.80;;
14015;SDS011;7083;48.854;9.158;2024-03-02T13:06:14;0.80;;;0.80;;
14015;SDS011;7083;48.854;9.158;2024-03-02T13:08:44;0.80;;;0.80;;
14015;SDS011;7083;48.854;9.158;2024-03-02T13:11:11;1.20;;;1.20;;
14015;SDS011;7083;48.854;9.158;2024-03-02T13:13:40;1.23;;;1.23;;
14015;SDS011;7083;48.854;9.158;2024-03-02T13:16:08;0.90;;;0.90;;
14015;SDS011;7083;48.854;9.158;2024-03-02T13:18:35;1.00;;;1.00;;
14015;SDS011;7083;48.854;9.158;2024-03-02T13:21:02;0.90;;;0.90;;
14015;SDS011;7083;48.854;9.158;2024-03-02T13:23:29;1.00;;;1.00;;
14015;SDS011;7083;48.854;9.158;2024-03-02T13:25:56;0.93;;;0.93;;
14015;SDS011;7083;48.854;9.158;2024-03-02T13:28:24;1.60;;;1.00;;
14015;SDS011;7083;48.854;9.158;2024-03-02T13:30:52;1.00;;;1.00;;
14015;SDS011;7083;48.854;9.158;2024-03-02T13:33:19;1.17;;;1.17;;
14015;SDS011;7083;48.854;9.158;2024-03-02T13:35:47;1.33;;;0.90;;
14015;SDS011;7083;48.854;9.158;2024-03-02T13:38:14;1.17;;;1.17;;
14015;SDS011;7083;48.854;9.158;2024-03-02T13:40:41;1.20;;;1.20;;
14015;SDS011;7083;48.854;9.158;2024-03-02T13:43:08;1.30;;;1.30;;
14015;SDS011;7083;48.854;9.158;2024-03-02T13:45:35;0.93;;;0.93;;
14015;SDS011;7083;48.854;9.158;2024-03-02T13:48:04;1.67;;;1.57;;
14015;SDS011;7083;48.854;9.158;2024-03-02T13:50:31;1.10;;;1.10;;
14015;SDS011;7083;48.854;9.158;2024-03-02T13:52:58;2.40;;;1.20;;
14015;SDS011;7083;48.854;9.158;2024-03-02T13:55:25;1.17;;;1.17;;
14015;SDS011;7083;48.854;9.158;2024-03-02T13:57:52;0.83;;;0.83;;
14015;SDS011;7083;48.854;9.158;2024-03-02T14:00:21;1.77;;;1.50;;
14015;SDS011;7083;48.854;9.158;2024-03-02T14:02:48;0.90;;;0.90;;
14015;SDS011;7083;48.854;9.158;2024-03-02T14:05:16;1.00;;;1.00;;
14015;SDS011;7083;48.854;9.158;2024-03-02T14:07:44;1.00;;;1.00;;
14015;SDS011;7083;48.854;9.158;2024-03-02T14:10:11;1.33;;;1.23;;
14015;SDS011;7083;48.854;9.158;2024-03-02T14:12:40;1.37;;;1.27;;
14015;SDS011;7083;48.854;9.158;2024-03-02T14:15:07;1.33;;;1.23;;
14015;SDS011;7083;48.854;9.158;2024-03-02T14:17:34;1.50;;;1.40;;
14015;SDS011;7083;48.854;9.158;2024-03-02T14:20:01;1.13;;;1.10;;
14015;SDS011;7083;48.854;9.158;2024-03-02T14:22:31;1.20;;;1.20;;
14015;SDS011;7083;48.854;9.158;2024-03-02T14:24:58;1.60;;;1.35;;
14015;SDS011;7083;48.854;9.158;2024-03-02T14:27:25;1.87;;;1.40;;
14015;SDS011;7083;48.854;9.158;2024-03-02T14:29:52;1.20;;;1.10;;
14015;SDS011;7083;48.854;9.158;2024-03-02T14:32:19;1.13;;;1.13;;
14015;SDS011;7083;48.854;9.158;2024-03-02T14:34:45;1.33;;;1.23;;
14015;SDS011;7083;48.854;9.158;2024-03-02T14:37:13;1.17;;;1.17;;
14015;SDS011;7083;48.854;9.158;2024-03-02T14:39:41;1.30;;;1.30;;
14015;SDS011;7083;48.854;9.158;2024-03-02T14:42:08;1.37;;;1.37;;
14015;SDS011;7083;48.854;9.158;2024-03-02T14:44:35;1.00;;;0.97;;
14015;SDS011;7083;48.854;9.158;2024-03-02T14:47:02;1.13;;;1.13;;
14015;SDS011;7083;48.854;9.158;2024-03-02T14:49:29;1.20;;;1.20;;
14015;SDS011;7083;48.854;9.158;2024-03-02T14:51:58;1.23;;;1.23;;
14015;SDS011;7083;48.854;9.158;2024-03-02T14:54:25;1.40;;;1.40;;
14015;SDS011;7083;48.854;9.158;2024-03-02T14:56:53;1.30;;;1.30;;
14015;SDS011;7083;48.854;9.158;2024-03-02T14:59:20;1.60;;;1.50;;
14015;SDS011;7083;48.854;9.158;2024-03-02T15:01:47;1.07;;;1.07;;
14015;SDS011;7083;48.854;9.158;2024-03-02T15:04:14;1.23;;;1.13;;
14015;SDS011;7083;48.854;9.158;2024-03-02T15:06:44;1.70;;;1.60;;
14015;SDS011;7083;48.854;9.158;2024-03-02T15:09:10;1.10;;;1.10;;
14015;SDS011;7083;48.854;9.158;2024-03-02T15:11:37;1.00;;;1.00;;
14015;SDS011;7083;48.854;9.158;2024-03-02T15:14:05;3.13;;;1.10;;
14015;SDS011;7083;48.854;9.158;2024-03-02T15:16:32;0.80;;;0.80;;
14015;SDS011;7083;48.854;9.158;2024-03-02T15:18:59;0.90;;;0.90;;
14015;SDS011;7083;48.854;9.158;2024-03-02T15:21:25;1.93;;;1.30;;
14015;SDS011;7083;48.854;9.158;2024-03-02T15:23:52;1.93;;;1.13;;
14015;SDS011;7083;48.854;9.158;2024-03-02T15:26:19;1.13;;;1.13;;
14015;SDS011;7083;48.854;9.158;2024-03-02T15:28:46;1.20;;;1.20;;
14015;SDS011;7083;48.854;9.158;2024-03-02T15:31:14;2.03;;;1.23;;
14015;SDS011;7083;48.854;9.158;2024-03-02T15:33:42;1.10;;;1.10;;